createdAt,value
2017-10-12T00:00:54.982Z,1.83
2017-10-12T00:03:22.549Z,1.47
2017-10-12T00:05:50.075Z,1.50
2017-10-12T00:08:18.383Z,2.13
2017-10-12T00:10:45.936Z,1.67
2017-10-12T00:13:13.520Z,1.57
2017-10-12T00:15:41.023Z,1.93
2017-10-12T00:18:08.617Z,1.53
2017-10-12T00:20:36.297Z,1.70
2017-10-12T00:23:03.853Z,1.90
2017-10-12T00:25:31.429Z,1.50
2017-10-12T00:27:58.997Z,1.67
2017-10-12T00:30:26.551Z,1.87
2017-10-12T00:32:54.119Z,1.20
2017-10-12T00:35:21.670Z,1.20
2017-10-12T00:37:49.195Z,1.43
2017-10-12T00:40:16.775Z,1.70
2017-10-12T00:42:44.333Z,1.90
2017-10-12T00:45:11.919Z,1.27
2017-10-12T00:47:39.481Z,1.40
2017-10-12T00:50:07.044Z,1.43
2017-10-12T00:52:34.687Z,1.70
2017-10-12T00:55:02.255Z,1.40
2017-10-12T00:57:29.783Z,1.80
2017-10-12T00:59:57.455Z,2.30
2017-10-12T01:02:25.011Z,1.77
2017-10-12T01:04:52.589Z,2.03
2017-10-12T01:07:20.117Z,1.40
2017-10-12T01:09:48.465Z,1.23
2017-10-12T01:12:16.025Z,1.73
2017-10-12T01:14:44.311Z,1.60
2017-10-12T01:17:12.643Z,1.97
2017-10-12T01:19:40.171Z,2.00
2017-10-12T01:22:07.719Z,1.63
2017-10-12T01:24:35.252Z,2.70
2017-10-12T01:27:03.549Z,1.70
2017-10-12T01:29:31.862Z,1.67
2017-10-12T01:31:59.383Z,1.57
2017-10-12T01:34:27.889Z,2.23
2017-10-12T01:36:56.352Z,1.60
2017-10-12T01:39:23.948Z,1.30
2017-10-12T01:41:51.466Z,1.87
2017-10-12T01:44:18.951Z,1.67
2017-10-12T01:46:46.780Z,1.63
2017-10-12T01:49:15.089Z,1.83
2017-10-12T01:51:42.657Z,2.03
2017-10-12T01:54:11.219Z,1.60
2017-10-12T01:56:38.870Z,1.80
2017-10-12T01:59:07.203Z,1.67
2017-10-12T02:01:34.739Z,2.10
2017-10-12T02:04:02.391Z,1.07
2017-10-12T02:06:29.964Z,1.70
2017-10-12T02:08:57.483Z,2.00
2017-10-12T02:11:25.029Z,1.57
2017-10-12T02:13:53.362Z,1.80
2017-10-12T02:16:20.915Z,1.70
2017-10-12T02:18:48.447Z,1.67
2017-10-12T02:21:16.015Z,1.50
2017-10-12T02:23:43.609Z,1.60
2017-10-12T02:26:11.275Z,1.87
2017-10-12T02:28:38.844Z,1.60
2017-10-12T02:31:07.884Z,1.97
2017-10-12T02:33:35.414Z,1.00
2017-10-12T02:36:03.765Z,1.20
2017-10-12T02:38:31.303Z,2.70
2017-10-12T02:40:58.846Z,1.60
2017-10-12T02:43:26.391Z,1.50
2017-10-12T02:45:53.953Z,1.20
2017-10-12T02:48:21.486Z,1.70
2017-10-12T02:50:49.081Z,1.73
2017-10-12T02:53:16.599Z,1.97
2017-10-12T02:55:44.947Z,1.77
2017-10-12T02:58:12.494Z,1.27
2017-10-12T03:00:40.025Z,3.17
2017-10-12T03:03:07.604Z,1.40
2017-10-12T03:05:35.130Z,1.03
2017-10-12T03:08:03.416Z,1.47
2017-10-12T03:10:31.762Z,1.77
2017-10-12T03:12:59.283Z,1.40
2017-10-12T03:15:26.827Z,1.60
2017-10-12T03:17:54.501Z,2.27
2017-10-12T03:20:22.159Z,1.53
2017-10-12T03:22:49.867Z,1.73
2017-10-12T03:25:17.419Z,1.37
2017-10-12T03:27:44.949Z,1.37
2017-10-12T03:30:12.503Z,1.33
2017-10-12T03:32:40.030Z,1.17
2017-10-12T03:35:07.611Z,1.90
2017-10-12T03:37:35.169Z,1.43
2017-10-12T03:40:02.685Z,1.70
2017-10-12T03:42:30.319Z,1.77
2017-10-12T03:44:57.893Z,1.50
2017-10-12T03:47:25.418Z,1.87
2017-10-12T03:49:53.171Z,1.50
2017-10-12T03:52:20.699Z,1.43
2017-10-12T03:54:49.017Z,2.07
2017-10-12T03:57:16.570Z,1.73
2017-10-12T03:59:44.141Z,1.57
2017-10-12T04:02:11.693Z,1.40
2017-10-12T04:04:39.217Z,1.70
2017-10-12T04:07:07.555Z,1.50
2017-10-12T04:09:35.119Z,1.73
2017-10-12T04:12:02.784Z,1.63
2017-10-12T04:14:30.310Z,1.60
2017-10-12T04:16:57.874Z,1.23
2017-10-12T04:19:25.401Z,1.83
2017-10-12T04:21:52.991Z,1.70
2017-10-12T04:24:20.521Z,1.47
2017-10-12T04:26:48.957Z,1.97
2017-10-12T04:29:16.504Z,1.40
2017-10-12T04:31:44.197Z,1.40
2017-10-12T04:34:11.737Z,1.87
2017-10-12T04:36:39.335Z,1.50
2017-10-12T04:39:07.641Z,1.70
2017-10-12T04:41:35.200Z,1.17
2017-10-12T04:44:02.905Z,0.87
2017-10-12T04:46:30.449Z,0.97
2017-10-12T04:48:58.017Z,0.70
2017-10-12T04:51:25.602Z,0.80
2017-10-12T04:53:53.149Z,0.73
2017-10-12T04:56:20.668Z,0.83
2017-10-12T04:58:48.585Z,0.80
2017-10-12T05:01:16.241Z,0.80
2017-10-12T05:03:43.948Z,0.60
2017-10-12T05:06:11.512Z,0.70
2017-10-12T05:08:39.043Z,0.60
2017-10-12T05:11:07.352Z,0.67
2017-10-12T05:13:34.993Z,0.70
2017-10-12T05:16:02.499Z,0.40
2017-10-12T05:18:30.128Z,0.50
2017-10-12T05:20:57.701Z,0.70
2017-10-12T05:23:25.276Z,0.50
2017-10-12T05:25:52.780Z,0.60
2017-10-12T05:28:20.369Z,0.80
2017-10-12T05:30:47.893Z,0.60
2017-10-12T05:33:16.218Z,0.70
2017-10-12T05:35:43.763Z,0.63
2017-10-12T05:38:11.394Z,0.70
2017-10-12T05:40:39.736Z,1.10
2017-10-12T05:43:07.306Z,0.90
2017-10-12T05:45:34.842Z,0.70
2017-10-12T05:48:02.491Z,0.90
2017-10-12T05:50:30.074Z,0.83
2017-10-12T05:52:57.655Z,1.07
2017-10-12T05:55:25.991Z,1.00
2017-10-12T05:57:53.537Z,1.30
2017-10-12T06:00:21.101Z,0.83
2017-10-12T06:02:48.656Z,0.67
2017-10-12T06:05:16.283Z,1.07
2017-10-12T06:07:44.905Z,0.83
2017-10-12T06:10:12.435Z,1.50
2017-10-12T06:12:40.777Z,0.70
2017-10-12T06:15:08.365Z,0.90
2017-10-12T06:17:36.766Z,1.10
2017-10-12T06:20:04.341Z,1.37
2017-10-12T06:22:31.903Z,1.00
2017-10-12T06:24:59.419Z,0.93
2017-10-12T06:27:27.849Z,1.07
2017-10-12T06:29:55.529Z,1.30
2017-10-12T06:32:23.114Z,1.10
2017-10-12T06:34:51.431Z,0.83
2017-10-12T06:37:18.983Z,1.43
2017-10-12T06:39:46.942Z,1.13
2017-10-12T06:42:14.466Z,0.80
2017-10-12T06:44:42.027Z,1.27
2017-10-12T06:47:09.702Z,0.80
2017-10-12T06:49:38.125Z,1.63
2017-10-12T06:52:05.695Z,0.70
2017-10-12T06:54:33.239Z,0.87
2017-10-12T06:57:00.795Z,1.10
2017-10-12T06:59:28.356Z,1.13
2017-10-12T07:01:55.915Z,0.87
2017-10-12T07:04:23.485Z,0.80
2017-10-12T07:06:51.037Z,1.13
2017-10-12T07:09:18.562Z,0.83
2017-10-12T07:11:46.915Z,1.13
2017-10-12T07:14:15.222Z,1.30
2017-10-12T07:16:43.516Z,1.20
2017-10-12T07:19:11.248Z,0.93
2017-10-12T07:21:39.536Z,1.03
2017-10-12T07:24:08.017Z,0.77
2017-10-12T07:26:36.322Z,1.17
2017-10-12T07:29:03.967Z,1.63
2017-10-12T07:31:31.522Z,0.80
2017-10-12T07:33:59.826Z,0.80
2017-10-12T07:36:27.527Z,0.83
2017-10-12T07:38:55.070Z,0.73
2017-10-12T07:41:22.620Z,0.60
2017-10-12T07:43:50.296Z,1.00
2017-10-12T07:46:17.890Z,0.90
2017-10-12T07:48:46.218Z,0.80
2017-10-12T07:51:13.754Z,1.10
2017-10-12T07:53:41.344Z,1.00
2017-10-12T07:56:08.920Z,0.87
2017-10-12T07:58:36.453Z,0.90
2017-10-12T08:01:04.001Z,0.90
2017-10-12T08:03:31.875Z,0.80
2017-10-12T08:05:59.427Z,0.60
2017-10-12T08:08:26.984Z,1.13
2017-10-12T08:10:54.518Z,1.80
2017-10-12T08:13:22.844Z,0.60
2017-10-12T08:15:50.400Z,0.60
2017-10-12T08:18:17.960Z,0.80
2017-10-12T08:20:45.564Z,0.83
2017-10-12T08:23:14.038Z,1.23
2017-10-12T08:25:41.604Z,0.80
2017-10-12T08:28:09.902Z,0.80
2017-10-12T08:30:37.434Z,0.73
2017-10-12T08:33:05.748Z,0.70
2017-10-12T08:35:34.228Z,0.90
2017-10-12T08:38:01.790Z,0.60
2017-10-12T08:40:29.556Z,0.60
2017-10-12T08:42:57.067Z,0.97
2017-10-12T08:45:24.684Z,0.60
2017-10-12T08:47:52.336Z,0.50
2017-10-12T08:50:19.902Z,0.63
2017-10-12T08:52:47.454Z,0.70
2017-10-12T08:55:15.018Z,0.70
2017-10-12T08:57:42.688Z,0.70
2017-10-12T09:00:10.226Z,0.60
2017-10-12T09:02:37.886Z,0.53
2017-10-12T09:05:05.429Z,0.80
2017-10-12T09:07:33.744Z,0.60
2017-10-12T09:10:01.396Z,0.90
2017-10-12T09:12:28.943Z,0.77
2017-10-12T09:14:56.484Z,0.50
2017-10-12T09:17:24.807Z,0.60
2017-10-12T09:19:52.390Z,0.80
2017-10-12T09:22:19.926Z,0.80
2017-10-12T09:24:47.466Z,1.60
2017-10-12T09:27:15.045Z,0.70
2017-10-12T09:29:42.626Z,0.57
2017-10-12T09:32:10.180Z,0.60
2017-10-12T09:34:37.710Z,0.60
2017-10-12T09:37:05.256Z,0.90
2017-10-12T09:39:32.952Z,0.80
2017-10-12T09:42:00.506Z,1.07
2017-10-12T09:44:28.080Z,0.70
2017-10-12T09:46:55.720Z,0.47
2017-10-12T09:49:23.248Z,0.60
2017-10-12T09:51:51.738Z,0.70
2017-10-12T09:54:19.261Z,0.50
2017-10-12T09:56:46.819Z,0.70
2017-10-12T09:59:14.352Z,0.80
2017-10-12T10:01:41.985Z,0.80
2017-10-12T10:04:09.498Z,0.53
2017-10-12T10:06:37.033Z,0.47
2017-10-12T10:09:04.601Z,0.60
2017-10-12T10:11:32.222Z,0.50
2017-10-12T10:13:59.826Z,0.57
2017-10-12T10:16:27.358Z,0.50
2017-10-12T10:18:54.904Z,0.70
2017-10-12T10:21:22.464Z,0.50
2017-10-12T10:23:49.998Z,0.50
2017-10-12T10:26:18.322Z,0.80
2017-10-12T10:28:45.934Z,0.50
2017-10-12T10:31:14.242Z,0.70
2017-10-12T10:33:41.797Z,0.70
2017-10-12T10:36:09.371Z,0.50
2017-10-12T10:38:36.956Z,0.80
2017-10-12T10:41:05.291Z,0.60
2017-10-12T10:43:32.793Z,0.50
2017-10-12T10:46:00.342Z,0.50
2017-10-12T10:48:27.887Z,0.60
2017-10-12T10:50:55.461Z,0.50
2017-10-12T10:53:22.996Z,0.60
2017-10-12T10:55:50.561Z,0.40
2017-10-12T10:58:18.116Z,0.60
2017-10-12T11:00:45.731Z,0.53
2017-10-12T11:03:14.029Z,0.40
2017-10-12T11:05:41.567Z,0.73
2017-10-12T11:08:09.907Z,0.50
2017-10-12T11:10:37.529Z,0.60
2017-10-12T11:13:05.105Z,0.40
2017-10-12T11:15:32.619Z,0.50
2017-10-12T11:18:00.911Z,0.30
2017-10-12T11:20:28.685Z,0.40
2017-10-12T11:22:56.263Z,0.40
2017-10-12T11:25:23.852Z,0.43
2017-10-12T11:27:51.414Z,0.50
2017-10-12T11:30:19.038Z,0.50
2017-10-12T11:32:46.805Z,1.40
2017-10-12T11:35:14.466Z,1.83
2017-10-12T11:37:42.008Z,1.47
2017-10-12T11:40:09.705Z,1.60
2017-10-12T11:42:37.229Z,1.70
2017-10-12T11:45:05.567Z,1.20
2017-10-12T11:47:33.119Z,1.53
2017-10-12T11:50:00.686Z,1.43
2017-10-12T11:52:28.385Z,1.60
2017-10-12T11:54:56.703Z,1.50
2017-10-12T11:57:24.200Z,2.00
2017-10-12T11:59:51.778Z,2.00
2017-10-12T12:02:20.142Z,1.77
2017-10-12T12:04:48.559Z,1.50
2017-10-12T12:07:16.115Z,1.40
2017-10-12T12:09:43.632Z,1.53
2017-10-12T12:12:11.917Z,1.40
2017-10-12T12:14:40.235Z,1.47
2017-10-12T12:17:07.791Z,1.20
2017-10-12T12:19:35.449Z,1.00
2017-10-12T12:22:02.979Z,1.53
2017-10-12T12:24:31.292Z,1.43
2017-10-12T12:26:59.082Z,1.07
2017-10-12T12:29:26.644Z,1.27
2017-10-12T12:31:54.179Z,1.07
2017-10-12T12:34:21.738Z,1.20
2017-10-12T12:36:49.273Z,1.47
2017-10-12T12:39:16.843Z,1.47
2017-10-12T12:41:44.413Z,1.03
2017-10-12T12:44:11.979Z,1.20
2017-10-12T12:46:39.658Z,2.70
2017-10-12T12:49:07.189Z,0.90
2017-10-12T12:51:34.830Z,0.83
2017-10-12T12:54:02.391Z,0.90
2017-10-12T12:56:29.947Z,1.00
2017-10-12T12:58:58.502Z,1.10
2017-10-12T13:01:26.021Z,1.20
2017-10-12T13:03:53.569Z,0.80
2017-10-12T13:06:21.101Z,0.77
2017-10-12T13:08:49.451Z,1.07
2017-10-12T13:11:17.025Z,0.93
2017-10-12T13:13:45.337Z,1.07
2017-10-12T13:16:12.916Z,0.93
2017-10-12T13:18:41.265Z,0.90
2017-10-12T13:21:08.863Z,0.70
2017-10-12T13:23:36.507Z,0.70
2017-10-12T13:26:04.121Z,1.10
2017-10-12T13:28:32.545Z,1.10
2017-10-12T13:31:00.084Z,0.77
2017-10-12T13:33:27.703Z,0.90
2017-10-12T13:35:55.298Z,1.27
2017-10-12T13:38:22.919Z,0.90
2017-10-12T13:40:50.523Z,0.50
2017-10-12T13:43:18.086Z,0.80
2017-10-12T13:45:45.716Z,0.67
2017-10-12T13:48:14.049Z,1.07
2017-10-12T13:50:41.642Z,0.80
2017-10-12T13:53:09.464Z,0.73
2017-10-12T13:55:37.094Z,0.80
2017-10-12T13:58:05.712Z,1.00
2017-10-12T14:00:33.408Z,0.50
2017-10-12T14:03:01.141Z,1.00
2017-10-12T14:05:28.949Z,1.00
2017-10-12T14:07:56.488Z,0.80
2017-10-12T14:10:24.024Z,0.87
2017-10-12T14:12:51.600Z,0.60
2017-10-12T14:15:19.156Z,0.80
2017-10-12T14:17:46.672Z,0.77
2017-10-12T14:20:14.268Z,0.90
2017-10-12T14:22:41.825Z,0.70
2017-10-12T14:25:09.376Z,0.83
2017-10-12T14:27:37.010Z,1.07
2017-10-12T14:30:05.484Z,1.37
2017-10-12T14:32:33.010Z,1.10
2017-10-12T14:35:00.634Z,1.50
2017-10-12T14:37:28.282Z,1.07
2017-10-12T14:39:55.860Z,1.07
2017-10-12T14:42:23.414Z,1.20
2017-10-12T14:44:51.012Z,0.70
2017-10-12T14:47:18.547Z,1.00
2017-10-12T14:49:46.104Z,0.90
2017-10-12T14:52:13.697Z,0.77
2017-10-12T14:54:41.216Z,1.20
2017-10-12T14:57:08.723Z,0.90
2017-10-12T14:59:36.350Z,0.93
2017-10-12T15:02:03.898Z,0.90
2017-10-12T15:04:31.467Z,0.90
2017-10-12T15:06:58.993Z,1.00
2017-10-12T15:09:26.742Z,1.00
2017-10-12T15:11:55.060Z,0.70
2017-10-12T15:14:22.609Z,1.07
2017-10-12T15:16:50.255Z,1.43
2017-10-12T15:19:17.792Z,1.10
2017-10-12T15:21:46.128Z,1.23
2017-10-12T15:24:13.669Z,1.20
2017-10-12T15:26:41.202Z,1.07
2017-10-12T15:29:09.475Z,1.20
2017-10-12T15:31:37.058Z,1.27
2017-10-12T15:34:04.586Z,1.90
2017-10-12T15:36:32.878Z,1.10
2017-10-12T15:39:00.444Z,0.97
2017-10-12T15:41:27.976Z,0.93
2017-10-12T15:43:56.278Z,0.90
2017-10-12T15:46:23.852Z,1.40
2017-10-12T15:48:51.377Z,1.50
2017-10-12T15:51:19.805Z,1.10
2017-10-12T15:53:47.312Z,1.23
2017-10-12T15:56:15.633Z,1.30
2017-10-12T15:58:43.220Z,1.00
2017-10-12T16:01:11.562Z,1.07
2017-10-12T16:03:39.138Z,1.00
2017-10-12T16:06:06.809Z,3.13
2017-10-12T16:08:34.337Z,1.73
2017-10-12T16:11:01.894Z,0.90
2017-10-12T16:13:29.440Z,1.20
2017-10-12T16:15:56.977Z,1.10
2017-10-12T16:18:24.555Z,0.80
2017-10-12T16:20:52.916Z,1.07
2017-10-12T16:23:21.281Z,1.03
2017-10-12T16:25:48.830Z,1.00
2017-10-12T16:28:16.370Z,1.27
2017-10-12T16:30:43.929Z,1.00
2017-10-12T16:33:11.532Z,0.73
2017-10-12T16:35:39.825Z,0.83
2017-10-12T16:38:08.156Z,0.90
2017-10-12T16:40:35.686Z,1.30
2017-10-12T16:43:03.353Z,1.00
2017-10-12T16:45:30.872Z,0.90
2017-10-12T16:47:59.218Z,0.60
2017-10-12T16:52:54.435Z,0.93
2017-10-12T16:55:21.981Z,0.70
2017-10-12T16:57:49.519Z,1.30
2017-10-12T17:00:17.140Z,0.80
2017-10-12T17:02:44.705Z,0.83
2017-10-12T17:05:13.028Z,0.80
2017-10-12T17:07:40.562Z,0.80
2017-10-12T17:10:08.156Z,0.80
2017-10-12T17:12:35.904Z,0.70
2017-10-12T17:15:03.684Z,0.70
2017-10-12T17:17:31.348Z,0.67
2017-10-12T17:19:58.926Z,0.90
2017-10-12T17:22:26.844Z,0.90
2017-10-12T17:24:54.518Z,0.67
2017-10-12T17:27:22.282Z,0.70
2017-10-12T17:29:49.925Z,0.80
2017-10-12T17:32:17.815Z,0.90
2017-10-12T17:34:45.678Z,0.80
2017-10-12T17:37:13.547Z,0.80
2017-10-12T17:39:41.359Z,0.60
2017-10-12T17:42:09.937Z,1.10
2017-10-12T17:44:38.583Z,0.50
2017-10-12T17:47:06.651Z,0.60
2017-10-12T17:49:34.619Z,0.90
2017-10-12T17:52:02.543Z,0.50
2017-10-12T17:54:37.445Z,0.67
2017-10-12T17:56:58.527Z,1.73
2017-10-12T17:59:27.932Z,0.87
2017-10-12T18:01:55.899Z,1.23
2017-10-12T18:06:51.862Z,0.60
2017-10-12T18:09:20.439Z,0.67
2017-10-12T18:14:15.898Z,0.50
2017-10-12T18:16:44.444Z,0.73
2017-10-12T18:19:12.099Z,0.73
2017-10-12T18:21:39.959Z,0.77
2017-10-12T18:24:08.074Z,0.67
2017-10-12T18:26:36.715Z,0.60
2017-10-12T18:29:04.478Z,0.60
2017-10-12T18:31:32.297Z,1.23
2017-10-12T18:34:00.664Z,0.70
2017-10-12T18:36:28.331Z,0.60
2017-10-12T18:38:56.715Z,0.60
2017-10-12T18:41:24.307Z,0.70
2017-10-12T18:43:51.887Z,0.80
2017-10-12T18:46:19.494Z,0.97
2017-10-12T18:48:47.920Z,0.50
2017-10-12T18:51:15.564Z,0.60
2017-10-12T18:53:43.980Z,0.87
2017-10-12T18:56:11.577Z,0.50
2017-10-12T18:58:39.194Z,0.50
2017-10-12T19:01:06.903Z,0.50
2017-10-12T19:03:34.462Z,0.53
2017-10-12T19:06:02.772Z,0.70
2017-10-12T19:08:30.354Z,0.60
2017-10-12T19:10:57.924Z,0.43
2017-10-12T19:13:25.488Z,0.50
2017-10-12T19:15:53.068Z,0.50
2017-10-12T19:18:20.608Z,0.60
2017-10-12T19:20:48.190Z,0.70
2017-10-12T19:23:15.805Z,0.70
2017-10-12T19:25:43.453Z,0.50
2017-10-12T19:30:39.433Z,0.50
2017-10-12T19:33:07.987Z,0.50
2017-10-12T19:35:35.597Z,0.40
2017-10-12T19:38:03.146Z,0.60
2017-10-12T19:40:30.735Z,0.40
2017-10-12T19:42:59.038Z,0.40
2017-10-12T19:45:26.609Z,0.50
2017-10-12T19:47:54.198Z,0.47
2017-10-12T19:50:21.834Z,0.40
2017-10-12T19:52:49.424Z,0.67
2017-10-12T19:55:17.008Z,0.40
2017-10-12T19:57:44.562Z,0.70
2017-10-12T20:00:12.075Z,0.60
2017-10-12T20:02:39.679Z,0.40
2017-10-12T20:05:08.035Z,0.40
2017-10-12T20:07:35.569Z,0.60
2017-10-12T20:10:03.170Z,1.80
2017-10-12T20:12:30.679Z,0.60
2017-10-12T20:14:58.270Z,0.50
2017-10-12T20:17:25.810Z,0.40
2017-10-12T20:19:53.372Z,0.40
2017-10-12T20:22:20.943Z,0.40
2017-10-12T20:24:48.600Z,0.40
2017-10-12T20:27:16.160Z,0.37
2017-10-12T20:29:43.700Z,0.53
2017-10-12T20:32:11.568Z,0.40
2017-10-12T20:34:39.105Z,0.50
2017-10-12T20:37:07.618Z,0.47
2017-10-12T20:39:35.168Z,0.40
2017-10-12T20:42:17.692Z,0.40
2017-10-12T20:44:30.292Z,0.30
2017-10-12T20:46:57.851Z,0.40
2017-10-12T20:49:25.407Z,0.40
2017-10-12T20:51:53.165Z,0.40
2017-10-12T20:54:20.715Z,0.60
2017-10-12T20:56:48.286Z,0.50
2017-10-12T20:59:16.057Z,0.50
2017-10-12T21:01:43.579Z,0.40
2017-10-12T21:04:11.976Z,0.40
2017-10-12T21:06:39.520Z,0.30
2017-10-12T21:09:07.808Z,0.40
2017-10-12T21:11:35.364Z,0.40
2017-10-12T21:14:02.926Z,0.40
2017-10-12T21:16:30.489Z,0.50
2017-10-12T21:18:58.064Z,0.60
2017-10-12T21:21:25.602Z,0.40
2017-10-12T21:23:53.167Z,0.40
2017-10-12T21:26:20.923Z,0.30
2017-10-12T21:28:49.241Z,0.50
2017-10-12T21:31:16.764Z,0.40
2017-10-12T21:33:44.362Z,0.40
2017-10-12T21:36:11.897Z,0.40
2017-10-12T21:38:39.436Z,0.30
2017-10-12T21:41:07.750Z,0.40
2017-10-12T21:43:35.302Z,0.50
2017-10-12T21:46:02.844Z,0.40
2017-10-12T21:48:30.404Z,0.90
2017-10-12T21:50:58.123Z,0.50
2017-10-12T21:53:25.647Z,0.37
2017-10-12T21:55:53.199Z,0.30
2017-10-12T21:58:20.732Z,0.50
2017-10-12T22:00:48.271Z,0.30
2017-10-12T22:03:16.636Z,0.40
2017-10-12T22:05:44.173Z,0.40
2017-10-12T22:08:11.719Z,0.40
2017-10-12T22:10:39.268Z,0.50
2017-10-12T22:13:06.816Z,0.30
2017-10-12T22:15:34.357Z,0.37
2017-10-12T22:18:02.671Z,0.40
2017-10-12T22:20:30.232Z,0.30
2017-10-12T22:22:58.167Z,0.40
2017-10-12T22:25:25.737Z,0.40
2017-10-12T22:27:53.412Z,0.50
2017-10-12T22:30:20.987Z,0.40
2017-10-12T22:32:48.493Z,0.47
2017-10-12T22:35:16.861Z,0.40
2017-10-12T22:37:44.396Z,0.30
2017-10-12T22:40:11.954Z,0.40
2017-10-12T22:42:39.539Z,0.30
2017-10-12T22:45:07.089Z,0.40
2017-10-12T22:47:35.425Z,0.40
2017-10-12T22:50:03.021Z,0.40
2017-10-12T22:52:30.617Z,0.30
2017-10-12T22:54:58.903Z,0.30
2017-10-12T22:57:26.445Z,0.40
2017-10-12T22:59:54.767Z,0.40
2017-10-12T23:02:23.218Z,0.30
2017-10-12T23:04:50.797Z,0.53
2017-10-12T23:07:18.334Z,0.30
2017-10-12T23:09:46.611Z,0.30
2017-10-12T23:12:14.191Z,0.30
2017-10-12T23:14:41.725Z,0.30
2017-10-12T23:17:09.376Z,0.30
2017-10-12T23:19:37.671Z,0.30
2017-10-12T23:22:05.225Z,0.40
2017-10-12T23:24:32.779Z,0.40
2017-10-12T23:27:01.086Z,0.40
2017-10-12T23:29:28.655Z,0.40
2017-10-12T23:31:56.191Z,0.30
2017-10-12T23:34:23.716Z,0.30
2017-10-12T23:36:51.290Z,0.30
2017-10-12T23:39:19.628Z,0.30
2017-10-12T23:41:47.155Z,0.37
2017-10-12T23:44:14.690Z,0.33
2017-10-12T23:46:42.972Z,0.40
2017-10-12T23:49:10.501Z,0.40
2017-10-12T23:51:38.403Z,0.37
2017-10-12T23:54:05.929Z,0.30
2017-10-12T23:56:35.230Z,0.30
2017-10-12T23:59:03.671Z,0.30
